DITTA ETNL-EDHE
Flight info
| Callsign | DITTA |
|---|---|
| Flight time | 1h 14m |
| Altitude | 9998 |
| Route | DCT ROSTOCK DCT FEHMARN DCT LUEBECK DCT EDDH DCT |
| Aircraft | DA62/L-SDE3FGHIRWY/LB2 |
Departure
| Time | 2026-04-26 09:37 |
|---|---|
| Airport | Rostock-Laage Airport (ETNL) |
Arrival
| Time | 2026-04-26 10:52 |
|---|---|
| Airport | Uetersen-Heist Airfield (EDHE) |
| Time | Latitude | Longitude | Altitude | Speed | Heading |
|---|---|---|---|---|---|
| 2026-04-26 09:28 | 53.91451 | 12.29118 | 144 ft | 0 kts | 192° |
| 2026-04-26 09:34 | 53.91458 | 12.29143 | 144 ft | 4 kts | 40° |
| 2026-04-26 09:34 | 53.91492 | 12.29172 | 144 ft | 8 kts | 19° |
| 2026-04-26 09:34 | 53.91553 | 12.29220 | 144 ft | 11 kts | 42° |
| 2026-04-26 09:34 | 53.91574 | 12.29353 | 144 ft | 16 kts | 89° |
| 2026-04-26 09:35 | 53.91571 | 12.29493 | 144 ft | 20 kts | 86° |
| 2026-04-26 09:35 | 53.91572 | 12.29566 | 145 ft | 3 kts | 95° |
| 2026-04-26 09:35 | 53.91581 | 12.29626 | 145 ft | 7 kts | 51° |
| 2026-04-26 09:36 | 53.91603 | 12.29654 | 146 ft | 0 kts | 22° |
| 2026-04-26 09:36 | 53.91603 | 12.29655 | 146 ft | 1 kts | 20° |
| 2026-04-26 09:36 | 53.91638 | 12.29681 | 146 ft | 10 kts | 360° |
| 2026-04-26 09:36 | 53.91672 | 12.29613 | 146 ft | 1 kts | 279° |
| 2026-04-26 09:37 | 53.91702 | 12.29269 | 144 ft | 68 kts | 277° |
| 2026-04-26 09:37 | 53.91745 | 12.28307 | 359 ft | 85 kts | 283° |
| 2026-04-26 09:37 | 53.91820 | 12.27262 | 671 ft | 94 kts | 281° |
| 2026-04-26 09:37 | 53.92007 | 12.26227 | 982 ft | 94 kts | 324° |
| 2026-04-26 09:38 | 53.92631 | 12.26155 | 1305 ft | 93 kts | 9° |
| 2026-04-26 09:38 | 53.93316 | 12.26369 | 1451 ft | 115 kts | 8° |
| 2026-04-26 09:38 | 53.94175 | 12.26688 | 1315 ft | 137 kts | 19° |
| 2026-04-26 09:38 | 53.94996 | 12.27592 | 1163 ft | 148 kts | 34° |
| 2026-04-26 09:39 | 53.95939 | 12.28327 | 988 ft | 146 kts | 359° |
| 2026-04-26 09:39 | 53.96747 | 12.27687 | 996 ft | 127 kts | 314° |
| 2026-04-26 09:39 | 53.97207 | 12.26496 | 987 ft | 114 kts | 306° |
| 2026-04-26 09:39 | 53.97594 | 12.25375 | 996 ft | 107 kts | 305° |
| 2026-04-26 09:40 | 53.97964 | 12.24292 | 994 ft | 105 kts | 306° |
| 2026-04-26 09:40 | 53.98328 | 12.23216 | 980 ft | 101 kts | 308° |
| 2026-04-26 09:40 | 53.98790 | 12.22354 | 983 ft | 99 kts | 321° |
| 2026-04-26 09:40 | 53.99338 | 12.21594 | 995 ft | 105 kts | 327° |
| 2026-04-26 09:41 | 53.99958 | 12.20891 | 991 ft | 108 kts | 329° |
| 2026-04-26 09:41 | 54.00660 | 12.20474 | 994 ft | 109 kts | 355° |
| 2026-04-26 09:41 | 54.01421 | 12.20355 | 987 ft | 111 kts | 352° |
| 2026-04-26 09:41 | 54.02002 | 12.20275 | 994 ft | 114 kts | 354° |
| 2026-04-26 09:42 | 54.02436 | 12.20222 | 993 ft | 117 kts | 355° |
| 2026-04-26 09:42 | 54.03253 | 12.20112 | 988 ft | 118 kts | 355° |
| 2026-04-26 09:42 | 54.04089 | 12.19978 | 1012 ft | 123 kts | 354° |
| 2026-04-26 09:43 | 54.04945 | 12.19839 | 1216 ft | 125 kts | 353° |
| 2026-04-26 09:43 | 54.05718 | 12.19260 | 1371 ft | 122 kts | 324° |
| 2026-04-26 09:43 | 54.06361 | 12.18442 | 1565 ft | 121 kts | 325° |
| 2026-04-26 09:43 | 54.07043 | 12.17573 | 1748 ft | 124 kts | 325° |
| 2026-04-26 09:44 | 54.07725 | 12.16698 | 1938 ft | 124 kts | 324° |
| 2026-04-26 09:44 | 54.08421 | 12.15811 | 2098 ft | 124 kts | 325° |
| 2026-04-26 09:44 | 54.09094 | 12.14944 | 2306 ft | 122 kts | 325° |
| 2026-04-26 09:44 | 54.09775 | 12.14074 | 2464 ft | 123 kts | 323° |
| 2026-04-26 09:45 | 54.10503 | 12.13149 | 2461 ft | 137 kts | 325° |
| 2026-04-26 09:45 | 54.11263 | 12.12175 | 2506 ft | 142 kts | 324° |
| 2026-04-26 09:45 | 54.12059 | 12.11169 | 2492 ft | 142 kts | 324° |
| 2026-04-26 09:45 | 54.12852 | 12.10168 | 2513 ft | 144 kts | 327° |
| 2026-04-26 09:46 | 54.13820 | 12.09721 | 2512 ft | 147 kts | 1° |
| 2026-04-26 09:46 | 54.14874 | 12.09910 | 2494 ft | 157 kts | 6° |
| 2026-04-26 09:46 | 54.15948 | 12.10095 | 2485 ft | 153 kts | 4° |
| 2026-04-26 09:46 | 54.16980 | 12.10277 | 2483 ft | 146 kts | 5° |
| 2026-04-26 09:47 | 54.17988 | 12.10465 | 2492 ft | 147 kts | 5° |
| 2026-04-26 09:47 | 54.18994 | 12.10631 | 2486 ft | 143 kts | 6° |
| 2026-04-26 09:47 | 54.19823 | 12.11501 | 2488 ft | 146 kts | 53° |
| 2026-04-26 09:47 | 54.19944 | 12.13210 | 2487 ft | 153 kts | 104° |
| 2026-04-26 09:48 | 54.19234 | 12.14545 | 2494 ft | 162 kts | 157° |
| 2026-04-26 09:48 | 54.18102 | 12.14608 | 2503 ft | 166 kts | 200° |
| 2026-04-26 09:48 | 54.17374 | 12.13597 | 2487 ft | 156 kts | 243° |
| 2026-04-26 09:49 | 54.17312 | 12.13397 | 2486 ft | 155 kts | 249° |
| 2026-04-26 09:49 | 54.17308 | 12.11680 | 2481 ft | 144 kts | 298° |
| 2026-04-26 09:49 | 54.18043 | 12.10683 | 2482 ft | 142 kts | 348° |
| 2026-04-26 09:50 | 54.19018 | 12.10699 | 2487 ft | 139 kts | 356° |
| 2026-04-26 09:50 | 54.19824 | 12.09901 | 2486 ft | 141 kts | 305° |
| 2026-04-26 09:50 | 54.20021 | 12.08258 | 2487 ft | 144 kts | 275° |
| 2026-04-26 09:50 | 54.19996 | 12.06544 | 2487 ft | 145 kts | 266° |
| 2026-04-26 09:51 | 54.19842 | 12.04860 | 2483 ft | 140 kts | 264° |
| 2026-04-26 09:51 | 54.19692 | 12.03265 | 2486 ft | 130 kts | 265° |
| 2026-04-26 09:51 | 54.19548 | 12.01794 | 2489 ft | 121 kts | 264° |
| 2026-04-26 09:51 | 54.19412 | 12.00411 | 2494 ft | 118 kts | 265° |
| 2026-04-26 09:52 | 54.19273 | 11.98988 | 2495 ft | 124 kts | 264° |
| 2026-04-26 09:52 | 54.18936 | 11.96015 | 2497 ft | 132 kts | 255° |
| 2026-04-26 09:52 | 54.18636 | 11.94526 | 2498 ft | 133 kts | 255° |
| 2026-04-26 09:53 | 54.18336 | 11.93017 | 2499 ft | 135 kts | 255° |
| 2026-04-26 09:53 | 54.18031 | 11.91490 | 2500 ft | 137 kts | 255° |
| 2026-04-26 09:53 | 54.17720 | 11.89927 | 2500 ft | 140 kts | 255° |
| 2026-04-26 09:53 | 54.17406 | 11.88363 | 2497 ft | 142 kts | 254° |
| 2026-04-26 09:54 | 54.17091 | 11.86772 | 2501 ft | 141 kts | 255° |
| 2026-04-26 09:54 | 54.16776 | 11.85181 | 2498 ft | 141 kts | 254° |
| 2026-04-26 09:54 | 54.16460 | 11.83583 | 2498 ft | 137 kts | 255° |
| 2026-04-26 09:54 | 54.16165 | 11.82096 | 2498 ft | 132 kts | 255° |
| 2026-04-26 09:55 | 54.15875 | 11.80636 | 2496 ft | 128 kts | 255° |
| 2026-04-26 09:55 | 54.15592 | 11.79215 | 2495 ft | 125 kts | 255° |
| 2026-04-26 09:55 | 54.15066 | 11.78079 | 2494 ft | 128 kts | 205° |
| 2026-04-26 09:55 | 54.14181 | 11.77885 | 2501 ft | 129 kts | 184° |
| 2026-04-26 09:56 | 54.13299 | 11.77707 | 2515 ft | 133 kts | 201° |
| 2026-04-26 09:56 | 54.12471 | 11.76873 | 2475 ft | 138 kts | 214° |
| 2026-04-26 09:56 | 54.11824 | 11.75791 | 2498 ft | 128 kts | 250° |
| 2026-04-26 09:56 | 54.11540 | 11.74378 | 2494 ft | 124 kts | 254° |
| 2026-04-26 09:57 | 54.11268 | 11.72999 | 2544 ft | 124 kts | 252° |
| 2026-04-26 09:57 | 54.10979 | 11.71503 | 2509 ft | 137 kts | 257° |
| 2026-04-26 09:57 | 54.10674 | 11.69940 | 2514 ft | 141 kts | 255° |
| 2026-04-26 09:57 | 54.10375 | 11.68364 | 2519 ft | 136 kts | 253° |
| 2026-04-26 09:58 | 54.10071 | 11.66783 | 2580 ft | 140 kts | 254° |
| 2026-04-26 09:58 | 54.09777 | 11.65240 | 2762 ft | 136 kts | 257° |
| 2026-04-26 09:58 | 54.09472 | 11.63652 | 2946 ft | 143 kts | 254° |
| 2026-04-26 09:58 | 54.09354 | 11.61990 | 3131 ft | 143 kts | 275° |
| 2026-04-26 09:59 | 54.09384 | 11.60295 | 3316 ft | 144 kts | 274° |
| 2026-04-26 09:59 | 54.09405 | 11.59165 | 3443 ft | 144 kts | 275° |
| 2026-04-26 09:59 | 54.09448 | 11.56847 | 3693 ft | 147 kts | 275° |
| 2026-04-26 09:59 | 54.09480 | 11.55108 | 3874 ft | 147 kts | 274° |
| 2026-04-26 10:00 | 54.09513 | 11.53367 | 4058 ft | 147 kts | 277° |
| 2026-04-26 10:00 | 54.09816 | 11.51899 | 4224 ft | 143 kts | 297° |
| 2026-04-26 10:00 | 54.10171 | 11.50407 | 4401 ft | 144 kts | 294° |
| 2026-04-26 10:00 | 54.10551 | 11.48782 | 4503 ft | 154 kts | 295° |
| 2026-04-26 10:01 | 54.10961 | 11.47032 | 4505 ft | 163 kts | 294° |
| 2026-04-26 10:01 | 54.11392 | 11.45206 | 4506 ft | 168 kts | 294° |
| 2026-04-26 10:01 | 54.11834 | 11.43342 | 4504 ft | 171 kts | 295° |
| 2026-04-26 10:01 | 54.12283 | 11.41453 | 4509 ft | 172 kts | 295° |
| 2026-04-26 10:02 | 54.12733 | 11.39552 | 4508 ft | 173 kts | 295° |
| 2026-04-26 10:02 | 54.13183 | 11.37648 | 4509 ft | 173 kts | 294° |
| 2026-04-26 10:02 | 54.13635 | 11.35738 | 4508 ft | 174 kts | 295° |
| 2026-04-26 10:02 | 54.14089 | 11.33824 | 4506 ft | 174 kts | 294° |
| 2026-04-26 10:03 | 54.14388 | 11.32559 | 4510 ft | 174 kts | 295° |
| 2026-04-26 10:03 | 54.14841 | 11.30642 | 4506 ft | 174 kts | 295° |
| 2026-04-26 10:03 | 54.15293 | 11.28726 | 4511 ft | 174 kts | 295° |
| 2026-04-26 10:03 | 54.15745 | 11.26815 | 4504 ft | 174 kts | 294° |
| 2026-04-26 10:04 | 54.16196 | 11.24907 | 4507 ft | 174 kts | 294° |
| 2026-04-26 10:04 | 54.16649 | 11.22993 | 4503 ft | 174 kts | 294° |
| 2026-04-26 10:04 | 54.17100 | 11.21079 | 4502 ft | 174 kts | 294° |
| 2026-04-26 10:04 | 54.17552 | 11.19170 | 4518 ft | 174 kts | 294° |
| 2026-04-26 10:05 | 54.18008 | 11.17254 | 4513 ft | 174 kts | 295° |
| 2026-04-26 10:05 | 54.18580 | 11.15456 | 4511 ft | 172 kts | 304° |
| 2026-04-26 10:05 | 54.19221 | 11.13724 | 4513 ft | 172 kts | 304° |
| 2026-04-26 10:05 | 54.19867 | 11.11993 | 4520 ft | 172 kts | 304° |
| 2026-04-26 10:06 | 54.20607 | 11.10424 | 4516 ft | 170 kts | 326° |
| 2026-04-26 10:06 | 54.21740 | 11.09977 | 4509 ft | 170 kts | 1° |
| 2026-04-26 10:06 | 54.22912 | 11.10136 | 4512 ft | 159 kts | 4° |
| 2026-04-26 10:06 | 54.23921 | 11.10296 | 4514 ft | 142 kts | 4° |
| 2026-04-26 10:07 | 54.24886 | 11.10457 | 4512 ft | 137 kts | 4° |
| 2026-04-26 10:07 | 54.25827 | 11.10619 | 4509 ft | 135 kts | 4° |
| 2026-04-26 10:07 | 54.26761 | 11.10781 | 4510 ft | 135 kts | 4° |
| 2026-04-26 10:07 | 54.27690 | 11.10941 | 4516 ft | 134 kts | 4° |
| 2026-04-26 10:08 | 54.28621 | 11.11108 | 4514 ft | 134 kts | 4° |
| 2026-04-26 10:08 | 54.29549 | 11.11277 | 4507 ft | 134 kts | 4° |
| 2026-04-26 10:08 | 54.30480 | 11.11447 | 4469 ft | 137 kts | 4° |
| 2026-04-26 10:08 | 54.31455 | 11.11625 | 4338 ft | 144 kts | 4° |
| 2026-04-26 10:09 | 54.32466 | 11.11813 | 4210 ft | 147 kts | 4° |
| 2026-04-26 10:09 | 54.33493 | 11.12005 | 4078 ft | 150 kts | 4° |
| 2026-04-26 10:09 | 54.34535 | 11.12200 | 3949 ft | 151 kts | 5° |
| 2026-04-26 10:09 | 54.35526 | 11.12692 | 3826 ft | 151 kts | 19° |
| 2026-04-26 10:10 | 54.36496 | 11.13360 | 3693 ft | 150 kts | 19° |
| 2026-04-26 10:10 | 54.37464 | 11.14027 | 3567 ft | 149 kts | 19° |
| 2026-04-26 10:10 | 54.38429 | 11.14690 | 3435 ft | 149 kts | 19° |
| 2026-04-26 10:10 | 54.39397 | 11.15351 | 3305 ft | 149 kts | 19° |
| 2026-04-26 10:11 | 54.40368 | 11.16019 | 3099 ft | 153 kts | 20° |
| 2026-04-26 10:11 | 54.41382 | 11.16712 | 2829 ft | 160 kts | 19° |
| 2026-04-26 10:11 | 54.42368 | 11.17598 | 2558 ft | 163 kts | 42° |
| 2026-04-26 10:11 | 54.43027 | 11.19159 | 2298 ft | 159 kts | 40° |
| 2026-04-26 10:12 | 54.44038 | 11.19765 | 2033 ft | 158 kts | 354° |
| 2026-04-26 10:12 | 54.45031 | 11.19092 | 1754 ft | 157 kts | 318° |
| 2026-04-26 10:12 | 54.45520 | 11.17488 | 1283 ft | 159 kts | 279° |
| 2026-04-26 10:12 | 54.45356 | 11.15573 | 866 ft | 160 kts | 252° |
| 2026-04-26 10:13 | 54.45200 | 11.13856 | 525 ft | 128 kts | 276° |
| 2026-04-26 10:13 | 54.45322 | 11.12554 | 242 ft | 92 kts | 283° |
| 2026-04-26 10:13 | 54.45463 | 11.11635 | 69 ft | 72 kts | 288° |
| 2026-04-26 10:13 | 54.45541 | 11.11194 | 32 ft | 66 kts | 287° |
| 2026-04-26 10:14 | 54.45606 | 11.10801 | 42 ft | 7 kts | 289° |
| 2026-04-26 10:14 | 54.45617 | 11.10760 | 42 ft | 7 kts | 58° |
| 2026-04-26 10:14 | 54.45599 | 11.10877 | 40 ft | 14 kts | 108° |
| 2026-04-26 10:14 | 54.45566 | 11.11068 | 33 ft | 19 kts | 117° |
| 2026-04-26 10:15 | 54.45536 | 11.11263 | 30 ft | 18 kts | 98° |
| 2026-04-26 10:15 | 54.45513 | 11.11417 | 32 ft | 6 kts | 223° |
| 2026-04-26 10:15 | 54.45541 | 11.11210 | 31 ft | 53 kts | 284° |
| 2026-04-26 10:15 | 54.45670 | 11.10316 | 159 ft | 88 kts | 282° |
| 2026-04-26 10:16 | 54.45755 | 11.09282 | 573 ft | 89 kts | 275° |
| 2026-04-26 10:16 | 54.45807 | 11.08173 | 857 ft | 101 kts | 275° |
| 2026-04-26 10:16 | 54.45867 | 11.06954 | 1141 ft | 105 kts | 275° |
| 2026-04-26 10:16 | 54.45932 | 11.05650 | 1405 ft | 113 kts | 276° |
| 2026-04-26 10:17 | 54.46142 | 11.04268 | 1511 ft | 135 kts | 307° |
| 2026-04-26 10:17 | 54.47010 | 11.03554 | 1504 ft | 151 kts | 357° |
| 2026-04-26 10:17 | 54.48003 | 11.04308 | 1501 ft | 168 kts | 44° |
| 2026-04-26 10:17 | 54.48581 | 11.06077 | 1518 ft | 173 kts | 64° |
| 2026-04-26 10:18 | 54.49072 | 11.07984 | 1517 ft | 176 kts | 64° |
| 2026-04-26 10:18 | 54.49567 | 11.09924 | 1533 ft | 179 kts | 64° |
| 2026-04-26 10:18 | 54.50082 | 11.11926 | 1520 ft | 185 kts | 64° |
| 2026-04-26 10:18 | 54.50599 | 11.13975 | 1510 ft | 185 kts | 65° |
| 2026-04-26 10:19 | 54.51007 | 11.16070 | 1519 ft | 188 kts | 80° |
| 2026-04-26 10:19 | 54.51124 | 11.18318 | 1521 ft | 186 kts | 84° |
| 2026-04-26 10:19 | 54.51218 | 11.20460 | 1504 ft | 177 kts | 84° |
| 2026-04-26 10:19 | 54.51278 | 11.22517 | 1509 ft | 169 kts | 94° |
| 2026-04-26 10:20 | 54.50735 | 11.24228 | 1503 ft | 164 kts | 143° |
| 2026-04-26 10:20 | 54.50045 | 11.24733 | 1505 ft | 158 kts | 176° |
| 2026-04-26 10:20 | 54.48644 | 11.24145 | 1619 ft | 162 kts | 204° |
| 2026-04-26 10:20 | 54.47579 | 11.23449 | 1721 ft | 162 kts | 205° |
| 2026-04-26 10:21 | 54.46590 | 11.22571 | 1873 ft | 162 kts | 230° |
| 2026-04-26 10:21 | 54.45978 | 11.20961 | 2004 ft | 160 kts | 244° |
| 2026-04-26 10:21 | 54.45446 | 11.19277 | 2116 ft | 158 kts | 244° |
| 2026-04-26 10:21 | 54.44931 | 11.17635 | 2283 ft | 158 kts | 244° |
| 2026-04-26 10:22 | 54.44402 | 11.15928 | 2406 ft | 164 kts | 245° |
| 2026-04-26 10:22 | 54.43857 | 11.14213 | 2514 ft | 161 kts | 244° |
| 2026-04-26 10:22 | 54.43333 | 11.12542 | 2640 ft | 156 kts | 244° |
| 2026-04-26 10:22 | 54.42818 | 11.10922 | 2802 ft | 155 kts | 244° |
| 2026-04-26 10:23 | 54.42291 | 11.09261 | 2924 ft | 162 kts | 244° |
| 2026-04-26 10:23 | 54.41754 | 11.07576 | 3052 ft | 160 kts | 244° |
| 2026-04-26 10:23 | 54.41222 | 11.05911 | 3183 ft | 158 kts | 244° |
| 2026-04-26 10:23 | 54.40689 | 11.04263 | 3320 ft | 158 kts | 244° |
| 2026-04-26 10:24 | 54.40161 | 11.02645 | 3448 ft | 157 kts | 244° |
| 2026-04-26 10:24 | 54.39624 | 11.01010 | 3581 ft | 157 kts | 244° |
| 2026-04-26 10:24 | 54.39084 | 10.99376 | 3711 ft | 157 kts | 244° |
| 2026-04-26 10:24 | 54.38540 | 10.97741 | 3846 ft | 158 kts | 244° |
| 2026-04-26 10:25 | 54.37993 | 10.96101 | 3983 ft | 161 kts | 244° |
| 2026-04-26 10:25 | 54.37427 | 10.94419 | 4099 ft | 163 kts | 244° |
| 2026-04-26 10:25 | 54.36848 | 10.92719 | 4241 ft | 165 kts | 244° |
| 2026-04-26 10:25 | 54.36276 | 10.91033 | 4400 ft | 163 kts | 244° |
| 2026-04-26 10:26 | 54.35698 | 10.89360 | 4511 ft | 166 kts | 244° |
| 2026-04-26 10:26 | 54.35100 | 10.87623 | 4527 ft | 172 kts | 244° |
| 2026-04-26 10:26 | 54.34488 | 10.85839 | 4526 ft | 176 kts | 244° |
| 2026-04-26 10:26 | 54.33856 | 10.83982 | 4505 ft | 183 kts | 244° |
| 2026-04-26 10:27 | 54.33227 | 10.82130 | 4508 ft | 178 kts | 244° |
| 2026-04-26 10:27 | 54.32606 | 10.80316 | 4508 ft | 175 kts | 244° |
| 2026-04-26 10:27 | 54.31990 | 10.78526 | 4508 ft | 173 kts | 244° |
| 2026-04-26 10:27 | 54.31380 | 10.76752 | 4509 ft | 173 kts | 244° |
| 2026-04-26 10:28 | 54.30768 | 10.74978 | 4513 ft | 173 kts | 244° |
| 2026-04-26 10:28 | 54.30145 | 10.73167 | 4517 ft | 180 kts | 244° |
| 2026-04-26 10:28 | 54.29519 | 10.71332 | 4520 ft | 177 kts | 244° |
| 2026-04-26 10:28 | 54.28896 | 10.69514 | 4528 ft | 178 kts | 245° |
| 2026-04-26 10:29 | 54.28278 | 10.67714 | 4516 ft | 176 kts | 244° |
| 2026-04-26 10:29 | 54.27666 | 10.65900 | 4522 ft | 178 kts | 247° |
| 2026-04-26 10:29 | 54.27032 | 10.64059 | 4515 ft | 178 kts | 244° |
| 2026-04-26 10:29 | 54.26402 | 10.62245 | 4514 ft | 176 kts | 244° |
| 2026-04-26 10:30 | 54.25773 | 10.60433 | 4500 ft | 179 kts | 244° |
| 2026-04-26 10:30 | 54.25149 | 10.58629 | 4517 ft | 175 kts | 244° |
| 2026-04-26 10:30 | 54.24526 | 10.56839 | 4507 ft | 174 kts | 244° |
| 2026-04-26 10:30 | 54.23903 | 10.55058 | 4523 ft | 177 kts | 243° |
| 2026-04-26 10:31 | 54.23266 | 10.53247 | 4508 ft | 177 kts | 244° |
| 2026-04-26 10:31 | 54.22641 | 10.51457 | 4509 ft | 176 kts | 244° |
| 2026-04-26 10:31 | 54.22285 | 10.50436 | 4508 ft | 175 kts | 244° |
| 2026-04-26 10:31 | 54.21657 | 10.48649 | 4526 ft | 176 kts | 243° |
| 2026-04-26 10:32 | 54.21023 | 10.46860 | 4504 ft | 174 kts | 244° |
| 2026-04-26 10:32 | 54.20400 | 10.45092 | 4516 ft | 176 kts | 244° |
| 2026-04-26 10:32 | 54.19757 | 10.43282 | 4508 ft | 180 kts | 243° |
| 2026-04-26 10:32 | 54.19122 | 10.41471 | 4514 ft | 175 kts | 244° |
| 2026-04-26 10:33 | 54.18506 | 10.39721 | 4514 ft | 173 kts | 244° |
| 2026-04-26 10:33 | 54.17880 | 10.37946 | 4513 ft | 171 kts | 244° |
| 2026-04-26 10:33 | 54.17255 | 10.36193 | 4523 ft | 179 kts | 244° |
| 2026-04-26 10:33 | 54.16608 | 10.34386 | 4527 ft | 177 kts | 244° |
| 2026-04-26 10:34 | 54.15969 | 10.32586 | 4507 ft | 176 kts | 244° |
| 2026-04-26 10:34 | 54.15418 | 10.31031 | 4506 ft | 176 kts | 244° |
| 2026-04-26 10:34 | 54.14788 | 10.29258 | 4522 ft | 175 kts | 244° |
| 2026-04-26 10:34 | 54.14157 | 10.27485 | 4511 ft | 174 kts | 244° |
| 2026-04-26 10:35 | 54.13527 | 10.25741 | 4525 ft | 172 kts | 245° |
| 2026-04-26 10:35 | 54.12897 | 10.23989 | 4510 ft | 174 kts | 244° |
| 2026-04-26 10:35 | 54.12270 | 10.22236 | 4509 ft | 171 kts | 244° |
| 2026-04-26 10:35 | 54.11647 | 10.20489 | 4516 ft | 173 kts | 245° |
| 2026-04-26 10:36 | 54.11016 | 10.18725 | 4522 ft | 175 kts | 244° |
| 2026-04-26 10:36 | 54.10385 | 10.16958 | 4511 ft | 173 kts | 244° |
| 2026-04-26 10:36 | 54.09757 | 10.15187 | 4503 ft | 175 kts | 244° |
| 2026-04-26 10:36 | 54.09124 | 10.13422 | 4526 ft | 175 kts | 245° |
| 2026-04-26 10:37 | 54.08488 | 10.11657 | 4523 ft | 174 kts | 242° |
| 2026-04-26 10:37 | 54.07856 | 10.09908 | 4506 ft | 172 kts | 244° |
| 2026-04-26 10:37 | 54.07229 | 10.08183 | 4522 ft | 171 kts | 244° |
| 2026-04-26 10:37 | 54.06600 | 10.06439 | 4518 ft | 175 kts | 243° |
| 2026-04-26 10:38 | 54.05961 | 10.04680 | 4505 ft | 173 kts | 244° |
| 2026-04-26 10:38 | 54.05332 | 10.02944 | 4510 ft | 173 kts | 244° |
| 2026-04-26 10:38 | 54.04697 | 10.01190 | 4511 ft | 174 kts | 245° |
| 2026-04-26 10:38 | 54.04122 | 9.99590 | 4506 ft | 175 kts | 245° |
| 2026-04-26 10:39 | 54.03636 | 9.98260 | 4519 ft | 173 kts | 244° |
| 2026-04-26 10:39 | 54.02995 | 9.96521 | 4497 ft | 174 kts | 244° |
| 2026-04-26 10:39 | 54.02371 | 9.94803 | 4500 ft | 172 kts | 244° |
| 2026-04-26 10:39 | 54.01740 | 9.93076 | 4511 ft | 171 kts | 244° |
| 2026-04-26 10:40 | 54.01103 | 9.91369 | 4507 ft | 172 kts | 240° |
| 2026-04-26 10:40 | 54.00066 | 9.90245 | 4495 ft | 188 kts | 199° |
| 2026-04-26 10:40 | 53.98734 | 9.90140 | 4518 ft | 194 kts | 184° |
| 2026-04-26 10:40 | 53.97369 | 9.90192 | 4503 ft | 196 kts | 184° |
| 2026-04-26 10:41 | 53.96010 | 9.90257 | 4506 ft | 196 kts | 184° |
| 2026-04-26 10:41 | 53.94647 | 9.90326 | 4517 ft | 198 kts | 184° |
| 2026-04-26 10:41 | 53.93264 | 9.90407 | 4503 ft | 199 kts | 184° |
| 2026-04-26 10:41 | 53.91879 | 9.90485 | 4503 ft | 199 kts | 184° |
| 2026-04-26 10:42 | 53.90507 | 9.90568 | 4500 ft | 195 kts | 184° |
| 2026-04-26 10:42 | 53.89610 | 9.90620 | 4498 ft | 194 kts | 184° |
| 2026-04-26 10:42 | 53.87814 | 9.90728 | 4501 ft | 193 kts | 184° |
| 2026-04-26 10:42 | 53.86499 | 9.90808 | 4507 ft | 191 kts | 184° |
| 2026-04-26 10:43 | 53.85166 | 9.90898 | 4510 ft | 192 kts | 184° |
| 2026-04-26 10:43 | 53.83825 | 9.90983 | 4508 ft | 193 kts | 184° |
| 2026-04-26 10:43 | 53.82501 | 9.91066 | 4508 ft | 192 kts | 184° |
| 2026-04-26 10:43 | 53.81178 | 9.91153 | 4508 ft | 191 kts | 184° |
| 2026-04-26 10:44 | 53.79818 | 9.91252 | 4511 ft | 194 kts | 184° |
| 2026-04-26 10:44 | 53.78512 | 9.91336 | 4510 ft | 194 kts | 184° |
| 2026-04-26 10:44 | 53.77168 | 9.91413 | 4519 ft | 193 kts | 184° |
| 2026-04-26 10:44 | 53.75812 | 9.91490 | 4511 ft | 194 kts | 184° |
| 2026-04-26 10:45 | 53.74461 | 9.91571 | 4522 ft | 195 kts | 184° |
| 2026-04-26 10:45 | 53.73117 | 9.91663 | 4506 ft | 197 kts | 184° |
| 2026-04-26 10:45 | 53.72198 | 9.91727 | 4512 ft | 196 kts | 184° |
| 2026-04-26 10:45 | 53.70397 | 9.91855 | 4528 ft | 196 kts | 184° |
| 2026-04-26 10:46 | 53.69477 | 9.91931 | 4530 ft | 196 kts | 184° |
| 2026-04-26 10:46 | 53.67668 | 9.92063 | 4510 ft | 195 kts | 184° |
| 2026-04-26 10:46 | 53.66580 | 9.92130 | 4511 ft | 195 kts | 184° |
| 2026-04-26 10:46 | 53.65667 | 9.92190 | 4520 ft | 195 kts | 184° |
| 2026-04-26 10:47 | 53.64323 | 9.92273 | 4510 ft | 195 kts | 184° |
| 2026-04-26 10:47 | 53.62962 | 9.92357 | 4523 ft | 198 kts | 184° |
| 2026-04-26 10:47 | 53.61595 | 9.92410 | 4520 ft | 193 kts | 191° |
| 2026-04-26 10:47 | 53.60459 | 9.91531 | 4507 ft | 175 kts | 233° |
| 2026-04-26 10:48 | 53.60025 | 9.89773 | 4484 ft | 159 kts | 273° |
| 2026-04-26 10:48 | 53.60440 | 9.88096 | 4260 ft | 161 kts | 313° |
| 2026-04-26 10:48 | 53.61347 | 9.86980 | 4032 ft | 163 kts | 323° |
| 2026-04-26 10:48 | 53.62302 | 9.85952 | 3807 ft | 161 kts | 324° |
| 2026-04-26 10:49 | 53.63232 | 9.84955 | 3563 ft | 157 kts | 323° |
| 2026-04-26 10:49 | 53.64164 | 9.83971 | 3311 ft | 159 kts | 324° |
| 2026-04-26 10:49 | 53.65114 | 9.82982 | 3047 ft | 161 kts | 324° |
| 2026-04-26 10:49 | 53.66080 | 9.81988 | 2797 ft | 164 kts | 324° |
| 2026-04-26 10:50 | 53.67025 | 9.80907 | 2513 ft | 161 kts | 311° |
| 2026-04-26 10:50 | 53.67414 | 9.79245 | 2261 ft | 155 kts | 269° |
| 2026-04-26 10:50 | 53.66951 | 9.77616 | 1999 ft | 162 kts | 232° |
| 2026-04-26 10:50 | 53.65999 | 9.76455 | 1283 ft | 175 kts | 218° |
| 2026-04-26 10:51 | 53.65042 | 9.75373 | 984 ft | 151 kts | 221° |
| 2026-04-26 10:51 | 53.64486 | 9.72893 | 408 ft | 106 kts | 275° |
| 2026-04-26 10:51 | 53.64546 | 9.71778 | 189 ft | 84 kts | 273° |
| 2026-04-26 10:52 | 53.64589 | 9.70888 | 25 ft | 66 kts | 273° |
| 2026-04-26 10:52 | 53.64598 | 9.70492 | 27 ft | 30 kts | 271° |
| 2026-04-26 10:52 | 53.64604 | 9.70319 | 29 ft | 7 kts | 235° |
| 2026-04-26 10:52 | 53.64577 | 9.70329 | 30 ft | 7 kts | 138° |
| 2026-04-26 10:53 | 53.64497 | 9.70358 | 30 ft | 15 kts | 173° |
| 2026-04-26 10:53 | 53.64485 | 9.70418 | 29 ft | 0 kts | 99° |